sensor_id;sensor_type;location;lat;lon;timestamp;pressure;altitude;pressure_sealevel;temperature;humidity
5500;BME280;2772;42.700;23.304;2024-02-16T00:01:57;95724.88;;;5.16;100.00
5500;BME280;2772;42.700;23.304;2024-02-16T00:04:24;95725.63;;;5.07;100.00
5500;BME280;2772;42.700;23.304;2024-02-16T00:06:51;95738.53;;;5.03;100.00
5500;BME280;2772;42.700;23.304;2024-02-16T00:09:19;95738.75;;;4.97;100.00
5500;BME280;2772;42.700;23.304;2024-02-16T00:11:45;95735.06;;;4.93;100.00
5500;BME280;2772;42.700;23.304;2024-02-16T00:14:13;95731.16;;;5.05;100.00
5500;BME280;2772;42.700;23.304;2024-02-16T00:16:40;95720.38;;;5.12;100.00
5500;BME280;2772;42.700;23.304;2024-02-16T00:19:07;95727.22;;;5.08;100.00
5500;BME280;2772;42.700;23.304;2024-02-16T00:21:33;95722.72;;;5.08;100.00
5500;BME280;2772;42.700;23.304;2024-02-16T00:24:00;95727.69;;;5.00;100.00
5500;BME280;2772;42.700;23.304;2024-02-16T00:26:29;95731.91;;;4.96;100.00
5500;BME280;2772;42.700;23.304;2024-02-16T00:28:56;95732.66;;;4.91;100.00
5500;BME280;2772;42.700;23.304;2024-02-16T00:31:23;95727.31;;;4.76;100.00
5500;BME280;2772;42.700;23.304;2024-02-16T00:33:49;95732.00;;;4.69;100.00
5500;BME280;2772;42.700;23.304;2024-02-16T00:36:16;95736.59;;;4.47;100.00
5500;BME280;2772;42.700;23.304;2024-02-16T00:38:43;95728.72;;;4.52;100.00
5500;BME280;2772;42.700;23.304;2024-02-16T00:41:17;95726.88;;;4.52;100.00
5500;BME280;2772;42.700;23.304;2024-02-16T00:43:45;95733.50;;;4.23;100.00
5500;BME280;2772;42.700;23.304;2024-02-16T00:46:14;95727.91;;;4.46;100.00
5500;BME280;2772;42.700;23.304;2024-02-16T00:48:40;95730.75;;;4.40;100.00
5500;BME280;2772;42.700;23.304;2024-02-16T00:51:07;95725.84;;;4.22;100.00
5500;BME280;2772;42.700;23.304;2024-02-16T00:53:34;95723.59;;;4.40;100.00
5500;BME280;2772;42.700;23.304;2024-02-16T00:56:00;95726.38;;;4.24;100.00
5500;BME280;2772;42.700;23.304;2024-02-16T00:58:28;95734.41;;;4.07;100.00
5500;BME280;2772;42.700;23.304;2024-02-16T01:00:56;95730.88;;;3.97;100.00
5500;BME280;2772;42.700;23.304;2024-02-16T01:03:23;95729.59;;;3.99;100.00
5500;BME280;2772;42.700;23.304;2024-02-16T01:05:51;95720.44;;;4.07;100.00
5500;BME280;2772;42.700;23.304;2024-02-16T01:08:18;95716.00;;;4.12;100.00
5500;BME280;2772;42.700;23.304;2024-02-16T01:10:45;95717.50;;;3.77;100.00
5500;BME280;2772;42.700;23.304;2024-02-16T01:13:12;95711.59;;;3.91;100.00
5500;BME280;2772;42.700;23.304;2024-02-16T01:15:38;95712.16;;;3.93;100.00
5500;BME280;2772;42.700;23.304;2024-02-16T01:18:08;95714.91;;;4.08;100.00
5500;BME280;2772;42.700;23.304;2024-02-16T01:20:34;95712.47;;;4.02;100.00
5500;BME280;2772;42.700;23.304;2024-02-16T01:23:01;95702.25;;;4.05;100.00
5500;BME280;2772;42.700;23.304;2024-02-16T01:25:30;95713.53;;;4.01;100.00
5500;BME280;2772;42.700;23.304;2024-02-16T01:27:57;95715.94;;;4.02;100.00
5500;BME280;2772;42.700;23.304;2024-02-16T01:30:24;95710.97;;;4.06;100.00
5500;BME280;2772;42.700;23.304;2024-02-16T01:32:51;95709.66;;;4.08;100.00
5500;BME280;2772;42.700;23.304;2024-02-16T01:35:19;95695.16;;;4.06;100.00
5500;BME280;2772;42.700;23.304;2024-02-16T01:37:46;95699.56;;;4.00;100.00
5500;BME280;2772;42.700;23.304;2024-02-16T01:40:13;95701.50;;;4.10;100.00
5500;BME280;2772;42.700;23.304;2024-02-16T01:42:42;95701.78;;;4.13;100.00
5500;BME280;2772;42.700;23.304;2024-02-16T01:45:10;95696.16;;;4.05;100.00
5500;BME280;2772;42.700;23.304;2024-02-16T01:47:38;95685.00;;;3.93;100.00
5500;BME280;2772;42.700;23.304;2024-02-16T01:50:06;95684.25;;;3.97;100.00
5500;BME280;2772;42.700;23.304;2024-02-16T01:52:35;95701.38;;;4.00;100.00
5500;BME280;2772;42.700;23.304;2024-02-16T01:55:03;95686.88;;;3.97;100.00
5500;BME280;2772;42.700;23.304;2024-02-16T01:57:31;95692.97;;;3.98;100.00
5500;BME280;2772;42.700;23.304;2024-02-16T01:59:58;95688.91;;;3.85;100.00
5500;BME280;2772;42.700;23.304;2024-02-16T02:02:26;95695.28;;;3.94;100.00
5500;BME280;2772;42.700;23.304;2024-02-16T02:04:53;95698.75;;;4.00;100.00
5500;BME280;2772;42.700;23.304;2024-02-16T02:07:25;95701.13;;;3.96;100.00
5500;BME280;2772;42.700;23.304;2024-02-16T02:09:54;95691.25;;;4.13;100.00
5500;BME280;2772;42.700;23.304;2024-02-16T02:12:21;95702.88;;;4.17;100.00
5500;BME280;2772;42.700;23.304;2024-02-16T02:14:48;95694.91;;;4.12;100.00
5500;BME280;2772;42.700;23.304;2024-02-16T02:17:15;95700.38;;;4.01;100.00
5500;BME280;2772;42.700;23.304;2024-02-16T02:19:42;95699.00;;;3.98;100.00
5500;BME280;2772;42.700;23.304;2024-02-16T02:22:14;95696.34;;;3.93;100.00
5500;BME280;2772;42.700;23.304;2024-02-16T02:24:41;95698.50;;;4.01;100.00
5500;BME280;2772;42.700;23.304;2024-02-16T02:27:07;95701.94;;;4.02;100.00
5500;BME280;2772;42.700;23.304;2024-02-16T02:29:34;95698.75;;;4.00;100.00
5500;BME280;2772;42.700;23.304;2024-02-16T02:32:01;95702.16;;;3.95;100.00
5500;BME280;2772;42.700;23.304;2024-02-16T02:34:28;95698.22;;;3.98;100.00
5500;BME280;2772;42.700;23.304;2024-02-16T02:36:54;95701.88;;;3.92;100.00
5500;BME280;2772;42.700;23.304;2024-02-16T02:39:23;95699.50;;;3.95;100.00
5500;BME280;2772;42.700;23.304;2024-02-16T02:41:49;95693.88;;;3.82;100.00
5500;BME280;2772;42.700;23.304;2024-02-16T02:44:16;95699.25;;;3.65;100.00
5500;BME280;2772;42.700;23.304;2024-02-16T02:46:44;95699.94;;;3.82;100.00
5500;BME280;2772;42.700;23.304;2024-02-16T02:49:11;95692.91;;;3.66;100.00
5500;BME280;2772;42.700;23.304;2024-02-16T02:51:38;95688.47;;;3.72;100.00
5500;BME280;2772;42.700;23.304;2024-02-16T02:54:04;95687.28;;;3.58;100.00
5500;BME280;2772;42.700;23.304;2024-02-16T02:56:33;95688.59;;;3.55;100.00
5500;BME280;2772;42.700;23.304;2024-02-16T02:58:59;95696.44;;;3.77;100.00
5500;BME280;2772;42.700;23.304;2024-02-16T03:01:26;95695.94;;;3.80;100.00
5500;BME280;2772;42.700;23.304;2024-02-16T03:03:53;95696.63;;;3.70;100.00
5500;BME280;2772;42.700;23.304;2024-02-16T03:06:20;95691.28;;;3.87;100.00
5500;BME280;2772;42.700;23.304;2024-02-16T03:08:48;95688.97;;;3.95;100.00
5500;BME280;2772;42.700;23.304;2024-02-16T03:11:15;95697.97;;;3.99;100.00
5500;BME280;2772;42.700;23.304;2024-02-16T03:13:43;95694.34;;;4.05;100.00
5500;BME280;2772;42.700;23.304;2024-02-16T03:16:11;95702.16;;;3.95;100.00
5500;BME280;2772;42.700;23.304;2024-02-16T03:18:37;95702.50;;;4.04;100.00
5500;BME280;2772;42.700;23.304;2024-02-16T03:21:04;95703.00;;;4.01;100.00
5500;BME280;2772;42.700;23.304;2024-02-16T03:23:33;95699.03;;;3.72;100.00
5500;BME280;2772;42.700;23.304;2024-02-16T03:25:59;95693.31;;;3.53;100.00
5500;BME280;2772;42.700;23.304;2024-02-16T03:28:26;95699.75;;;3.62;100.00
5500;BME280;2772;42.700;23.304;2024-02-16T03:30:55;95698.13;;;3.61;100.00
5500;BME280;2772;42.700;23.304;2024-02-16T03:33:21;95701.81;;;3.60;100.00
5500;BME280;2772;42.700;23.304;2024-02-16T03:35:48;95703.16;;;3.63;100.00
5500;BME280;2772;42.700;23.304;2024-02-16T03:38:15;95699.31;;;3.75;100.00
5500;BME280;2772;42.700;23.304;2024-02-16T03:40:42;95696.31;;;3.62;100.00
5500;BME280;2772;42.700;23.304;2024-02-16T03:43:08;95698.06;;;3.56;100.00
5500;BME280;2772;42.700;23.304;2024-02-16T03:45:37;95706.22;;;3.55;100.00
5500;BME280;2772;42.700;23.304;2024-02-16T03:48:06;95696.63;;;3.44;100.00
5500;BME280;2772;42.700;23.304;2024-02-16T03:50:33;95699.16;;;3.34;100.00
5500;BME280;2772;42.700;23.304;2024-02-16T03:53:00;95693.97;;;3.44;100.00
5500;BME280;2772;42.700;23.304;2024-02-16T03:55:27;95704.72;;;3.37;100.00
5500;BME280;2772;42.700;23.304;2024-02-16T03:57:54;95700.13;;;3.49;100.00
5500;BME280;2772;42.700;23.304;2024-02-16T04:00:21;95699.25;;;3.44;100.00
5500;BME280;2772;42.700;23.304;2024-02-16T04:02:47;95703.19;;;3.41;100.00
5500;BME280;2772;42.700;23.304;2024-02-16T04:05:15;95697.34;;;3.34;100.00
5500;BME280;2772;42.700;23.304;2024-02-16T04:07:42;95693.22;;;3.43;100.00
5500;BME280;2772;42.700;23.304;2024-02-16T04:10:09;95702.13;;;3.42;100.00
5500;BME280;2772;42.700;23.304;2024-02-16T04:12:36;95698.41;;;3.38;100.00
5500;BME280;2772;42.700;23.304;2024-02-16T04:15:03;95701.69;;;3.50;100.00
5500;BME280;2772;42.700;23.304;2024-02-16T04:17:30;95698.47;;;3.43;100.00
5500;BME280;2772;42.700;23.304;2024-02-16T04:19:57;95695.44;;;3.56;100.00
5500;BME280;2772;42.700;23.304;2024-02-16T04:22:25;95697.53;;;3.54;100.00
5500;BME280;2772;42.700;23.304;2024-02-16T04:24:52;95695.69;;;3.55;100.00
5500;BME280;2772;42.700;23.304;2024-02-16T04:27:19;95700.69;;;3.56;100.00
5500;BME280;2772;42.700;23.304;2024-02-16T04:29:45;95704.81;;;3.47;100.00
5500;BME280;2772;42.700;23.304;2024-02-16T04:32:12;95707.16;;;3.44;100.00
5500;BME280;2772;42.700;23.304;2024-02-16T04:34:39;95701.63;;;3.45;100.00
5500;BME280;2772;42.700;23.304;2024-02-16T04:37:05;95698.53;;;3.48;100.00
5500;BME280;2772;42.700;23.304;2024-02-16T04:39:33;95704.97;;;3.36;100.00
5500;BME280;2772;42.700;23.304;2024-02-16T04:42:00;95709.19;;;3.37;100.00
5500;BME280;2772;42.700;23.304;2024-02-16T04:44:27;95705.75;;;3.36;100.00
5500;BME280;2772;42.700;23.304;2024-02-16T04:46:54;95709.06;;;3.26;100.00
5500;BME280;2772;42.700;23.304;2024-02-16T04:49:21;95707.78;;;3.29;100.00
5500;BME280;2772;42.700;23.304;2024-02-16T04:51:47;95704.75;;;3.42;100.00
5500;BME280;2772;42.700;23.304;2024-02-16T04:54:14;95703.38;;;3.35;100.00
5500;BME280;2772;42.700;23.304;2024-02-16T04:56:42;95715.28;;;3.42;100.00
5500;BME280;2772;42.700;23.304;2024-02-16T04:59:09;95714.38;;;3.32;100.00
5500;BME280;2772;42.700;23.304;2024-02-16T05:01:36;95716.78;;;3.33;100.00
5500;BME280;2772;42.700;23.304;2024-02-16T05:04:03;95721.53;;;3.36;100.00
5500;BME280;2772;42.700;23.304;2024-02-16T05:06:30;95719.47;;;3.38;100.00
5500;BME280;2772;42.700;23.304;2024-02-16T05:08:57;95726.31;;;3.39;100.00
5500;BME280;2772;42.700;23.304;2024-02-16T05:11:24;95712.06;;;3.35;100.00
5500;BME280;2772;42.700;23.304;2024-02-16T05:13:52;95727.63;;;3.37;100.00
5500;BME280;2772;42.700;23.304;2024-02-16T05:16:19;95725.31;;;3.45;100.00
5500;BME280;2772;42.700;23.304;2024-02-16T05:18:46;95733.13;;;3.35;100.00
5500;BME280;2772;42.700;23.304;2024-02-16T05:21:12;95734.47;;;3.38;100.00
5500;BME280;2772;42.700;23.304;2024-02-16T05:23:39;95742.72;;;3.46;100.00
5500;BME280;2772;42.700;23.304;2024-02-16T05:26:06;95737.53;;;3.51;100.00
5500;BME280;2772;42.700;23.304;2024-02-16T05:28:33;95740.75;;;3.58;100.00
5500;BME280;2772;42.700;23.304;2024-02-16T05:31:12;95746.88;;;3.64;100.00
5500;BME280;2772;42.700;23.304;2024-02-16T05:33:40;95748.72;;;3.63;100.00
5500;BME280;2772;42.700;23.304;2024-02-16T05:36:07;95758.69;;;3.61;100.00
5500;BME280;2772;42.700;23.304;2024-02-16T05:38:34;95754.16;;;3.57;100.00
5500;BME280;2772;42.700;23.304;2024-02-16T05:41:06;95758.38;;;3.58;100.00
5500;BME280;2772;42.700;23.304;2024-02-16T05:43:33;95768.38;;;3.56;100.00
5500;BME280;2772;42.700;23.304;2024-02-16T05:46:01;95766.22;;;3.31;100.00
5500;BME280;2772;42.700;23.304;2024-02-16T05:48:28;95755.97;;;3.51;100.00
5500;BME280;2772;42.700;23.304;2024-02-16T05:50:57;95760.25;;;3.57;100.00
5500;BME280;2772;42.700;23.304;2024-02-16T05:53:26;95758.84;;;3.50;100.00
5500;BME280;2772;42.700;23.304;2024-02-16T05:55:53;95751.53;;;3.35;100.00
5500;BME280;2772;42.700;23.304;2024-02-16T05:58:20;95756.81;;;3.35;100.00
5500;BME280;2772;42.700;23.304;2024-02-16T06:00:48;95756.19;;;3.28;100.00
5500;BME280;2772;42.700;23.304;2024-02-16T06:03:16;95764.03;;;3.23;100.00
5500;BME280;2772;42.700;23.304;2024-02-16T06:05:43;95755.91;;;3.24;100.00
5500;BME280;2772;42.700;23.304;2024-02-16T06:08:10;95757.22;;;3.27;100.00
5500;BME280;2772;42.700;23.304;2024-02-16T06:10:38;95759.19;;;3.15;100.00
5500;BME280;2772;42.700;23.304;2024-02-16T06:13:05;95755.69;;;3.31;100.00
5500;BME280;2772;42.700;23.304;2024-02-16T06:15:32;95745.66;;;3.28;100.00
5500;BME280;2772;42.700;23.304;2024-02-16T06:18:00;95758.53;;;3.46;100.00
5500;BME280;2772;42.700;23.304;2024-02-16T06:20:28;95758.78;;;3.45;100.00
5500;BME280;2772;42.700;23.304;2024-02-16T06:22:55;95753.03;;;3.26;100.00
5500;BME280;2772;42.700;23.304;2024-02-16T06:25:22;95748.50;;;3.43;100.00
5500;BME280;2772;42.700;23.304;2024-02-16T06:27:51;95762.06;;;3.57;100.00
5500;BME280;2772;42.700;23.304;2024-02-16T06:30:18;95761.50;;;3.76;100.00
5500;BME280;2772;42.700;23.304;2024-02-16T06:32:45;95758.13;;;3.81;100.00
5500;BME280;2772;42.700;23.304;2024-02-16T06:35:12;95744.22;;;3.85;100.00
5500;BME280;2772;42.700;23.304;2024-02-16T06:37:41;95758.34;;;4.01;100.00
5500;BME280;2772;42.700;23.304;2024-02-16T06:40:08;95757.59;;;4.05;100.00
5500;BME280;2772;42.700;23.304;2024-02-16T06:42:36;95761.47;;;3.98;100.00
5500;BME280;2772;42.700;23.304;2024-02-16T06:45:03;95760.28;;;4.10;100.00
5500;BME280;2772;42.700;23.304;2024-02-16T06:47:30;95760.97;;;4.01;100.00
5500;BME280;2772;42.700;23.304;2024-02-16T06:49:57;95758.47;;;4.16;100.00
5500;BME280;2772;42.700;23.304;2024-02-16T06:52:24;95765.72;;;4.30;100.00
5500;BME280;2772;42.700;23.304;2024-02-16T06:54:52;95769.03;;;4.47;100.00
5500;BME280;2772;42.700;23.304;2024-02-16T06:57:19;95771.47;;;4.54;100.00
5500;BME280;2772;42.700;23.304;2024-02-16T06:59:46;95775.94;;;4.53;100.00
5500;BME280;2772;42.700;23.304;2024-02-16T07:02:15;95779.03;;;4.45;100.00
5500;BME280;2772;42.700;23.304;2024-02-16T07:04:43;95778.34;;;4.60;100.00
5500;BME280;2772;42.700;23.304;2024-02-16T07:07:11;95773.34;;;4.58;100.00
5500;BME280;2772;42.700;23.304;2024-02-16T07:09:38;95791.44;;;4.50;100.00
5500;BME280;2772;42.700;23.304;2024-02-16T07:12:08;95782.78;;;4.54;100.00
5500;BME280;2772;42.700;23.304;2024-02-16T07:14:37;95777.25;;;4.56;100.00
5500;BME280;2772;42.700;23.304;2024-02-16T07:17:05;95772.53;;;4.58;100.00
5500;BME280;2772;42.700;23.304;2024-02-16T07:19:34;95776.22;;;4.57;100.00
5500;BME280;2772;42.700;23.304;2024-02-16T07:22:01;95786.31;;;4.65;100.00
5500;BME280;2772;42.700;23.304;2024-02-16T07:24:28;95774.75;;;4.71;100.00
5500;BME280;2772;42.700;23.304;2024-02-16T07:26:54;95771.41;;;4.80;100.00
5500;BME280;2772;42.700;23.304;2024-02-16T07:29:22;95780.06;;;4.76;100.00
5500;BME280;2772;42.700;23.304;2024-02-16T07:31:49;95775.69;;;4.92;100.00
5500;BME280;2772;42.700;23.304;2024-02-16T07:34:17;95776.25;;;4.99;100.00
5500;BME280;2772;42.700;23.304;2024-02-16T07:36:44;95776.81;;;5.01;100.00
5500;BME280;2772;42.700;23.304;2024-02-16T07:39:10;95785.06;;;5.14;100.00
5500;BME280;2772;42.700;23.304;2024-02-16T07:41:38;95782.47;;;5.19;100.00
5500;BME280;2772;42.700;23.304;2024-02-16T07:44:04;95781.22;;;5.37;100.00
5500;BME280;2772;42.700;23.304;2024-02-16T07:46:33;95772.75;;;5.96;100.00
5500;BME280;2772;42.700;23.304;2024-02-16T07:49:00;95766.34;;;5.77;100.00
5500;BME280;2772;42.700;23.304;2024-02-16T07:51:29;95785.09;;;5.71;100.00
5500;BME280;2772;42.700;23.304;2024-02-16T07:53:55;95786.47;;;5.83;100.00
5500;BME280;2772;42.700;23.304;2024-02-16T07:56:22;95785.97;;;5.96;100.00
5500;BME280;2772;42.700;23.304;2024-02-16T07:58:49;95784.94;;;5.97;100.00
5500;BME280;2772;42.700;23.304;2024-02-16T08:01:15;95787.31;;;6.09;100.00
5500;BME280;2772;42.700;23.304;2024-02-16T08:03:43;95796.34;;;6.18;100.00
5500;BME280;2772;42.700;23.304;2024-02-16T08:06:10;95790.03;;;6.29;100.00
5500;BME280;2772;42.700;23.304;2024-02-16T08:08:37;95791.63;;;6.35;100.00
5500;BME280;2772;42.700;23.304;2024-02-16T08:11:04;95789.78;;;6.40;100.00
5500;BME280;2772;42.700;23.304;2024-02-16T08:13:30;95790.31;;;6.47;100.00
5500;BME280;2772;42.700;23.304;2024-02-16T08:15:57;95784.75;;;6.49;100.00
5500;BME280;2772;42.700;23.304;2024-02-16T08:18:24;95790.31;;;6.63;100.00
5500;BME280;2772;42.700;23.304;2024-02-16T08:20:52;95790.59;;;6.61;100.00
5500;BME280;2772;42.700;23.304;2024-02-16T08:23:18;95796.69;;;6.67;100.00
5500;BME280;2772;42.700;23.304;2024-02-16T08:25:45;95791.09;;;6.73;100.00
5500;BME280;2772;42.700;23.304;2024-02-16T08:28:12;95799.84;;;6.79;100.00
5500;BME280;2772;42.700;23.304;2024-02-16T08:30:39;95793.50;;;6.80;100.00
5500;BME280;2772;42.700;23.304;2024-02-16T08:33:07;95794.81;;;6.92;100.00
5500;BME280;2772;42.700;23.304;2024-02-16T08:35:33;95790.28;;;7.03;100.00
5500;BME280;2772;42.700;23.304;2024-02-16T08:38:01;95797.97;;;7.14;100.00
5500;BME280;2772;42.700;23.304;2024-02-16T08:40:28;95788.41;;;7.23;100.00
5500;BME280;2772;42.700;23.304;2024-02-16T08:42:55;95786.84;;;7.27;100.00
5500;BME280;2772;42.700;23.304;2024-02-16T08:45:22;95795.56;;;7.33;100.00
5500;BME280;2772;42.700;23.304;2024-02-16T08:47:49;95787.06;;;7.31;99.99
5500;BME280;2772;42.700;23.304;2024-02-16T08:50:16;95792.34;;;7.41;99.27
5500;BME280;2772;42.700;23.304;2024-02-16T08:52:43;95797.66;;;7.46;99.67
5500;BME280;2772;42.700;23.304;2024-02-16T08:55:11;95796.03;;;7.50;100.00
5500;BME280;2772;42.700;23.304;2024-02-16T08:57:38;95778.84;;;8.01;100.00
5500;BME280;2772;42.700;23.304;2024-02-16T09:00:06;95786.06;;;7.90;100.00
5500;BME280;2772;42.700;23.304;2024-02-16T09:02:33;95787.09;;;7.99;100.00
5500;BME280;2772;42.700;23.304;2024-02-16T09:05:00;95783.09;;;8.07;100.00
5500;BME280;2772;42.700;23.304;2024-02-16T09:07:27;95791.06;;;8.07;99.60
5500;BME280;2772;42.700;23.304;2024-02-16T09:09:56;95802.91;;;8.20;96.88
5500;BME280;2772;42.700;23.304;2024-02-16T09:12:28;95790.72;;;8.19;94.76
5500;BME280;2772;42.700;23.304;2024-02-16T09:14:55;95795.75;;;8.20;93.43
5500;BME280;2772;42.700;23.304;2024-02-16T09:17:22;95794.63;;;8.36;93.02
5500;BME280;2772;42.700;23.304;2024-02-16T09:19:49;95799.84;;;8.46;92.37
5500;BME280;2772;42.700;23.304;2024-02-16T09:22:17;95807.28;;;8.49;89.71
5500;BME280;2772;42.700;23.304;2024-02-16T09:24:44;95805.34;;;8.60;90.22
5500;BME280;2772;42.700;23.304;2024-02-16T09:27:12;95797.06;;;8.66;89.78
5500;BME280;2772;42.700;23.304;2024-02-16T09:29:40;95801.03;;;8.69;89.92
5500;BME280;2772;42.700;23.304;2024-02-16T09:32:07;95809.50;;;8.76;89.63
5500;BME280;2772;42.700;23.304;2024-02-16T09:34:34;95799.09;;;8.79;89.56
5500;BME280;2772;42.700;23.304;2024-02-16T09:37:00;95800.34;;;8.87;89.78
5500;BME280;2772;42.700;23.304;2024-02-16T09:39:28;95795.53;;;8.94;89.50
5500;BME280;2772;42.700;23.304;2024-02-16T09:41:56;95775.84;;;8.95;89.81
5500;BME280;2772;42.700;23.304;2024-02-16T09:44:23;95796.41;;;9.13;89.66
5500;BME280;2772;42.700;23.304;2024-02-16T09:46:54;95788.13;;;9.19;88.28
5500;BME280;2772;42.700;23.304;2024-02-16T09:49:21;95787.00;;;9.25;86.69
5500;BME280;2772;42.700;23.304;2024-02-16T09:51:48;95781.91;;;9.29;87.03
5500;BME280;2772;42.700;23.304;2024-02-16T09:54:15;95793.34;;;9.29;87.21
5500;BME280;2772;42.700;23.304;2024-02-16T09:56:42;95785.31;;;9.34;86.82
5500;BME280;2772;42.700;23.304;2024-02-16T09:59:10;95778.16;;;9.35;87.51
5500;BME280;2772;42.700;23.304;2024-02-16T10:01:37;95770.66;;;9.37;86.10
5500;BME280;2772;42.700;23.304;2024-02-16T10:04:08;95778.31;;;9.43;84.44
5500;BME280;2772;42.700;23.304;2024-02-16T10:06:46;95769.28;;;9.44;84.80
5500;BME280;2772;42.700;23.304;2024-02-16T10:09:22;95768.06;;;9.55;84.94
5500;BME280;2772;42.700;23.304;2024-02-16T10:11:49;95772.00;;;9.63;84.27
5500;BME280;2772;42.700;23.304;2024-02-16T10:14:15;95761.91;;;9.60;83.95
5500;BME280;2772;42.700;23.304;2024-02-16T10:16:42;95759.53;;;9.58;84.24
5500;BME280;2772;42.700;23.304;2024-02-16T10:19:10;95751.72;;;9.67;84.21
5500;BME280;2772;42.700;23.304;2024-02-16T10:21:37;95762.00;;;9.74;83.83
5500;BME280;2772;42.700;23.304;2024-02-16T10:24:05;95743.69;;;9.72;83.81
5500;BME280;2772;42.700;23.304;2024-02-16T10:26:35;95744.91;;;9.80;84.15
5500;BME280;2772;42.700;23.304;2024-02-16T10:29:03;95748.28;;;9.85;84.38
5500;BME280;2772;42.700;23.304;2024-02-16T10:31:31;95738.91;;;9.93;84.29
5500;BME280;2772;42.700;23.304;2024-02-16T10:33:59;95744.06;;;10.03;84.35
5500;BME280;2772;42.700;23.304;2024-02-16T10:36:31;95730.06;;;9.97;83.22
5500;BME280;2772;42.700;23.304;2024-02-16T10:39:00;95740.34;;;10.04;83.66
5500;BME280;2772;42.700;23.304;2024-02-16T10:41:33;95730.84;;;9.98;83.30
5500;BME280;2772;42.700;23.304;2024-02-16T10:44:01;95734.06;;;9.95;83.02
5500;BME280;2772;42.700;23.304;2024-02-16T10:46:28;95736.59;;;10.05;83.33
5500;BME280;2772;42.700;23.304;2024-02-16T10:48:55;95730.19;;;10.06;82.97
5500;BME280;2772;42.700;23.304;2024-02-16T10:51:25;95723.81;;;10.07;83.27
5500;BME280;2772;42.700;23.304;2024-02-16T10:53:58;95729.28;;;10.15;83.08
5500;BME280;2772;42.700;23.304;2024-02-16T10:56:27;95722.34;;;10.19;82.56
5500;BME280;2772;42.700;23.304;2024-02-16T10:58:54;95724.41;;;10.22;82.94
5500;BME280;2772;42.700;23.304;2024-02-16T11:01:22;95716.91;;;10.24;82.72
5500;BME280;2772;42.700;23.304;2024-02-16T11:03:49;95707.22;;;10.33;82.45
5500;BME280;2772;42.700;23.304;2024-02-16T11:06:26;95716.41;;;10.41;82.50
5500;BME280;2772;42.700;23.304;2024-02-16T11:08:53;95715.75;;;10.49;81.81
5500;BME280;2772;42.700;23.304;2024-02-16T11:11:24;95703.16;;;10.54;81.45
5500;BME280;2772;42.700;23.304;2024-02-16T11:13:54;95693.88;;;10.52;79.98
5500;BME280;2772;42.700;23.304;2024-02-16T11:16:21;95716.47;;;10.54;77.94
5500;BME280;2772;42.700;23.304;2024-02-16T11:18:50;95708.31;;;10.64;77.95
5500;BME280;2772;42.700;23.304;2024-02-16T11:21:17;95704.06;;;10.63;78.01
5500;BME280;2772;42.700;23.304;2024-02-16T11:23:44;95696.56;;;10.65;79.01
5500;BME280;2772;42.700;23.304;2024-02-16T11:26:12;95694.28;;;10.59;79.72
5500;BME280;2772;42.700;23.304;2024-02-16T11:28:42;95697.66;;;10.64;78.10
5500;BME280;2772;42.700;23.304;2024-02-16T11:31:09;95698.44;;;10.65;77.69
5500;BME280;2772;42.700;23.304;2024-02-16T11:33:35;95678.94;;;10.69;77.28
5500;BME280;2772;42.700;23.304;2024-02-16T11:36:03;95674.00;;;10.63;76.92
5500;BME280;2772;42.700;23.304;2024-02-16T11:38:31;95681.41;;;10.79;77.22
5500;BME280;2772;42.700;23.304;2024-02-16T11:41:00;95681.13;;;10.81;76.64
5500;BME280;2772;42.700;23.304;2024-02-16T11:43:27;95676.38;;;10.78;75.17
5500;BME280;2772;42.700;23.304;2024-02-16T11:45:56;95686.66;;;10.84;75.24
5500;BME280;2772;42.700;23.304;2024-02-16T11:48:24;95677.78;;;10.89;74.14
5500;BME280;2772;42.700;23.304;2024-02-16T11:50:59;95680.06;;;10.95;73.70
5500;BME280;2772;42.700;23.304;2024-02-16T11:53:27;95679.47;;;10.98;73.92
5500;BME280;2772;42.700;23.304;2024-02-16T11:55:54;95665.84;;;11.00;74.30
5500;BME280;2772;42.700;23.304;2024-02-16T11:58:21;95674.66;;;11.00;74.16
5500;BME280;2772;42.700;23.304;2024-02-16T12:00:49;95660.81;;;10.98;74.29
5500;BME280;2772;42.700;23.304;2024-02-16T12:03:21;95662.41;;;10.99;73.94
5500;BME280;2772;42.700;23.304;2024-02-16T12:05:51;95669.81;;;11.02;74.12
5500;BME280;2772;42.700;23.304;2024-02-16T12:08:18;95670.22;;;11.09;73.72
5500;BME280;2772;42.700;23.304;2024-02-16T12:10:47;95658.16;;;11.12;73.53
5500;BME280;2772;42.700;23.304;2024-02-16T12:13:16;95653.72;;;11.21;73.28
5500;BME280;2772;42.700;23.304;2024-02-16T12:15:43;95652.66;;;11.22;73.15
5500;BME280;2772;42.700;23.304;2024-02-16T12:18:10;95651.97;;;11.30;72.94
5500;BME280;2772;42.700;23.304;2024-02-16T12:20:41;95658.88;;;11.31;73.33
5500;BME280;2772;42.700;23.304;2024-02-16T12:23:13;95641.47;;;11.34;71.82
5500;BME280;2772;42.700;23.304;2024-02-16T12:25:40;95655.50;;;11.39;72.82
5500;BME280;2772;42.700;23.304;2024-02-16T12:28:07;95648.19;;;11.45;72.07
5500;BME280;2772;42.700;23.304;2024-02-16T12:30:34;95646.22;;;11.50;71.45
5500;BME280;2772;42.700;23.304;2024-02-16T12:33:02;95648.47;;;11.57;71.43
5500;BME280;2772;42.700;23.304;2024-02-16T12:35:29;95637.81;;;11.57;70.66
5500;BME280;2772;42.700;23.304;2024-02-16T12:37:57;95644.81;;;11.53;70.76
5500;BME280;2772;42.700;23.304;2024-02-16T12:40:24;95643.03;;;11.62;70.43
5500;BME280;2772;42.700;23.304;2024-02-16T12:42:52;95631.38;;;11.58;70.50
5500;BME280;2772;42.700;23.304;2024-02-16T12:45:19;95643.16;;;11.70;70.22
5500;BME280;2772;42.700;23.304;2024-02-16T12:47:46;95637.41;;;11.77;70.33
5500;BME280;2772;42.700;23.304;2024-02-16T12:50:12;95635.50;;;11.77;69.87
5500;BME280;2772;42.700;23.304;2024-02-16T12:52:39;95635.34;;;11.74;70.87
5500;BME280;2772;42.700;23.304;2024-02-16T12:55:08;95630.66;;;11.79;71.24
5500;BME280;2772;42.700;23.304;2024-02-16T12:57:36;95637.78;;;11.84;70.77
5500;BME280;2772;42.700;23.304;2024-02-16T13:00:04;95635.41;;;11.82;70.27
5500;BME280;2772;42.700;23.304;2024-02-16T13:02:31;95632.13;;;11.85;69.68
5500;BME280;2772;42.700;23.304;2024-02-16T13:04:58;95621.59;;;11.80;69.45
5500;BME280;2772;42.700;23.304;2024-02-16T13:07:24;95627.94;;;11.93;70.23
5500;BME280;2772;42.700;23.304;2024-02-16T13:09:51;95637.44;;;11.99;69.81
5500;BME280;2772;42.700;23.304;2024-02-16T13:12:20;95631.72;;;11.92;70.55
5500;BME280;2772;42.700;23.304;2024-02-16T13:14:49;95627.38;;;11.96;69.91